createdAt,value
2018-02-09T00:02:28.165Z,4.12
2018-02-09T00:04:57.671Z,3.60
2018-02-09T00:07:27.928Z,2.90
2018-02-09T00:09:56.569Z,3.17
2018-02-09T00:12:25.212Z,2.75
2018-02-09T00:14:54.229Z,2.42
2018-02-09T00:17:22.890Z,3.30
2018-02-09T00:19:51.538Z,2.35
2018-02-09T00:22:20.396Z,2.50
2018-02-09T00:24:49.055Z,2.90
2018-02-09T00:27:17.692Z,2.40
2018-02-09T00:29:47.116Z,2.75
2018-02-09T00:34:44.415Z,2.92
2018-02-09T00:37:13.063Z,2.33
2018-02-09T00:39:41.727Z,3.28
2018-02-09T00:42:11.909Z,3.35
2018-02-09T00:44:40.639Z,2.30
2018-02-09T00:47:10.066Z,3.37
2018-02-09T00:49:38.720Z,2.97
2018-02-09T00:52:08.148Z,2.25
2018-02-09T00:54:36.842Z,2.60
2018-02-09T00:57:05.525Z,2.35
2018-02-09T00:59:34.291Z,2.25
2018-02-09T01:02:03.717Z,2.83
2018-02-09T01:04:32.418Z,3.58
2018-02-09T01:07:01.067Z,3.35
2018-02-09T01:09:30.460Z,3.50
2018-02-09T01:11:59.881Z,2.72
2018-02-09T01:14:28.681Z,3.25
2018-02-09T01:16:57.331Z,3.00
2018-02-09T01:19:26.862Z,3.05
2018-02-09T01:21:56.022Z,3.97
2018-02-09T01:24:26.675Z,2.70
2018-02-09T01:26:55.369Z,2.40
2018-02-09T01:29:24.016Z,2.53
2018-02-09T01:31:52.669Z,2.95
2018-02-09T01:34:21.306Z,2.53
2018-02-09T01:36:50.766Z,2.67
2018-02-09T01:39:19.423Z,3.72
2018-02-09T01:41:48.100Z,3.05
2018-02-09T01:44:16.754Z,3.60
2018-02-09T01:46:45.383Z,3.47
2018-02-09T01:49:14.026Z,3.53
2018-02-09T01:51:43.428Z,3.12
2018-02-09T01:54:12.081Z,3.45
2018-02-09T01:56:40.729Z,4.20
2018-02-09T01:59:09.396Z,3.70
2018-02-09T02:01:38.787Z,3.72
2018-02-09T02:04:08.286Z,4.35
2018-02-09T02:06:36.912Z,3.70
2018-02-09T02:09:04.896Z,3.97
2018-02-09T02:11:33.556Z,4.47
2018-02-09T02:14:02.220Z,4.40
2018-02-09T02:16:31.652Z,5.47
2018-02-09T02:19:00.397Z,4.62
2018-02-09T02:21:29.801Z,2.92
2018-02-09T02:23:58.484Z,4.22
2018-02-09T02:26:28.458Z,4.97
2018-02-09T02:28:57.089Z,4.07
2018-02-09T02:31:26.499Z,4.20
2018-02-09T02:33:55.892Z,4.97
2018-02-09T02:36:25.305Z,4.55
2018-02-09T02:38:54.703Z,5.18
2018-02-09T02:41:23.791Z,4.00
2018-02-09T02:43:53.189Z,5.65
2018-02-09T02:46:21.860Z,4.45
2018-02-09T02:48:50.498Z,4.80
2018-02-09T02:51:19.159Z,5.70
2018-02-09T02:53:47.815Z,5.50
2018-02-09T02:56:16.467Z,5.65
2018-02-09T02:58:45.389Z,5.70
2018-02-09T03:01:14.033Z,5.25
2018-02-09T03:03:42.683Z,5.90
2018-02-09T03:06:12.103Z,6.78
2018-02-09T03:08:40.759Z,6.35
2018-02-09T03:11:09.432Z,5.32
2018-02-09T03:13:38.063Z,5.87
2018-02-09T03:16:06.727Z,5.78
2018-02-09T03:18:36.151Z,7.87
2018-02-09T03:21:04.787Z,5.65
2018-02-09T03:23:33.419Z,6.55
2018-02-09T03:26:02.100Z,6.60
2018-02-09T03:28:30.754Z,6.75
2018-02-09T03:31:00.261Z,5.72
2018-02-09T03:33:29.764Z,7.45
2018-02-09T03:35:58.387Z,6.35
2018-02-09T03:38:27.029Z,5.85
2018-02-09T03:40:56.492Z,5.97
2018-02-09T03:43:25.222Z,6.35
2018-02-09T03:45:53.851Z,6.25
2018-02-09T03:48:22.504Z,6.55
2018-02-09T03:50:51.921Z,5.12
2018-02-09T03:53:20.576Z,4.78
2018-02-09T03:55:49.214Z,6.47
2018-02-09T03:58:17.882Z,3.65
2018-02-09T04:00:46.507Z,3.00
2018-02-09T04:03:15.164Z,1.70
2018-02-09T04:05:43.793Z,2.67
2018-02-09T04:08:12.415Z,6.10
2018-02-09T04:10:41.068Z,5.72
2018-02-09T04:13:10.084Z,3.42
2018-02-09T04:15:38.739Z,2.05
2018-02-09T04:18:07.358Z,4.32
2018-02-09T04:20:36.028Z,5.57
2018-02-09T04:23:06.029Z,3.03
2018-02-09T04:25:34.715Z,5.90
2018-02-09T04:28:04.122Z,7.18
2018-02-09T04:30:33.546Z,6.65
2018-02-09T04:33:02.183Z,7.57
2018-02-09T04:35:30.846Z,7.95
2018-02-09T04:37:59.500Z,8.27
2018-02-09T04:40:28.183Z,6.07
2018-02-09T04:42:56.486Z,8.15
2018-02-09T04:45:25.156Z,7.10
2018-02-09T04:47:53.791Z,5.78
2018-02-09T04:50:22.448Z,7.15
2018-02-09T04:52:51.113Z,6.72
2018-02-09T04:55:19.572Z,8.15
2018-02-09T04:57:49.023Z,7.62
2018-02-09T05:00:17.673Z,6.87
2018-02-09T05:02:46.381Z,8.32
2018-02-09T05:05:15.780Z,7.57
2018-02-09T05:07:44.427Z,5.72
2018-02-09T05:10:13.128Z,9.77
2018-02-09T05:12:41.804Z,5.90
2018-02-09T05:15:10.430Z,6.53
2018-02-09T05:17:40.100Z,8.60
2018-02-09T05:20:08.747Z,3.28
2018-02-09T05:22:37.419Z,7.35
2018-02-09T05:25:06.074Z,3.85
2018-02-09T05:27:34.732Z,3.53
2018-02-09T05:30:03.659Z,5.95
2018-02-09T05:32:32.359Z,2.80
2018-02-09T05:35:02.568Z,2.22
2018-02-09T05:37:31.239Z,7.10
2018-02-09T05:39:59.923Z,8.50
2018-02-09T05:42:28.579Z,10.27
2018-02-09T05:44:57.981Z,8.48
2018-02-09T05:47:27.381Z,6.22
2018-02-09T05:49:56.798Z,6.37
2018-02-09T05:52:25.422Z,2.10
2018-02-09T05:54:54.109Z,7.10
2018-02-09T05:57:23.744Z,4.75
2018-02-09T05:59:53.218Z,11.48
2018-02-09T06:02:21.867Z,8.82
2018-02-09T06:04:50.516Z,9.13
2018-02-09T06:07:19.161Z,12.00
2018-02-09T06:09:47.816Z,12.25
2018-02-09T06:12:16.459Z,9.85
2018-02-09T06:14:45.149Z,12.20
2018-02-09T06:17:13.813Z,5.35
2018-02-09T06:19:42.457Z,9.02
2018-02-09T06:22:11.100Z,13.10
2018-02-09T06:24:39.765Z,10.80
2018-02-09T06:27:08.445Z,9.15
2018-02-09T06:29:37.110Z,9.77
2018-02-09T06:32:05.755Z,11.18
2018-02-09T06:34:35.268Z,13.00
2018-02-09T06:37:04.698Z,13.38
2018-02-09T06:39:33.353Z,16.23
2018-02-09T06:42:02.012Z,15.30
2018-02-09T06:44:30.663Z,13.25
2018-02-09T06:46:59.319Z,18.85
2018-02-09T06:49:28.714Z,10.60
2018-02-09T06:51:58.134Z,12.05
2018-02-09T06:54:26.821Z,12.23
2018-02-09T06:56:55.484Z,7.18
2018-02-09T06:59:24.896Z,11.55
2018-02-09T07:01:53.563Z,9.40
2018-02-09T07:04:22.199Z,7.97
2018-02-09T07:06:50.842Z,4.35
2018-02-09T07:09:20.275Z,11.57
2018-02-09T07:11:49.021Z,33.35
2018-02-09T07:14:18.442Z,5.95
2018-02-09T07:16:47.871Z,32.38
2018-02-09T07:19:16.520Z,28.65
2018-02-09T07:21:45.932Z,10.40
2018-02-09T07:24:15.163Z,21.50
2018-02-09T07:26:43.815Z,18.55
2018-02-09T07:29:12.466Z,18.83
2018-02-09T07:31:41.169Z,26.85
2018-02-09T07:34:10.665Z,22.98
2018-02-09T07:36:40.079Z,23.98
2018-02-09T07:39:09.508Z,21.67
2018-02-09T07:41:38.293Z,32.38
2018-02-09T07:44:06.950Z,35.40
2018-02-09T07:46:36.379Z,23.50
2018-02-09T07:49:05.058Z,24.83
2018-02-09T07:51:33.721Z,27.83
2018-02-09T07:54:03.150Z,23.75
2018-02-09T07:56:31.815Z,18.27
2018-02-09T07:59:01.105Z,14.00
2018-02-09T08:01:30.510Z,12.57
2018-02-09T08:03:59.921Z,7.07
2018-02-09T08:06:28.566Z,12.02
2018-02-09T08:08:57.290Z,11.90
2018-02-09T08:11:26.788Z,8.48
2018-02-09T08:13:56.235Z,8.65
2018-02-09T08:16:24.897Z,13.02
2018-02-09T08:18:53.558Z,17.80
2018-02-09T08:21:22.243Z,18.60
2018-02-09T08:23:51.739Z,17.37
2018-02-09T08:26:20.395Z,31.48
2018-02-09T08:28:49.800Z,36.50
2018-02-09T08:31:18.456Z,31.62
2018-02-09T08:33:47.132Z,23.12
2018-02-09T08:36:15.788Z,31.52
2018-02-09T08:38:44.431Z,29.80
2018-02-09T08:41:13.095Z,39.92
2018-02-09T08:43:41.744Z,23.45
2018-02-09T08:46:11.215Z,23.87
2018-02-09T08:48:39.914Z,31.80
2018-02-09T08:51:08.569Z,23.67
2018-02-09T08:53:37.225Z,26.58
2018-02-09T08:56:05.938Z,25.88
2018-02-09T08:58:34.602Z,33.67
2018-02-09T09:01:03.268Z,34.47
2018-02-09T09:03:32.805Z,25.65
2018-02-09T09:06:01.453Z,28.77
2018-02-09T09:08:31.121Z,31.73
2018-02-09T09:10:59.447Z,22.85
2018-02-09T09:13:28.109Z,20.75
2018-02-09T09:15:56.775Z,25.08
2018-02-09T09:18:25.448Z,18.25
2018-02-09T09:20:54.196Z,9.90
2018-02-09T09:23:22.879Z,16.92
2018-02-09T09:25:51.512Z,23.12
2018-02-09T09:28:20.192Z,15.30
2018-02-09T09:30:48.840Z,32.65
2018-02-09T09:33:17.532Z,21.87
2018-02-09T09:35:46.184Z,31.25
2018-02-09T09:38:15.431Z,29.40
2018-02-09T09:40:44.074Z,29.70
2018-02-09T09:43:13.507Z,32.70
2018-02-09T09:45:42.207Z,30.00
2018-02-09T09:48:10.852Z,28.58
2018-02-09T09:50:39.517Z,21.40
2018-02-09T09:53:08.006Z,22.50
2018-02-09T09:55:36.409Z,26.80
2018-02-09T09:58:04.984Z,28.53
2018-02-09T10:00:33.652Z,26.40
2018-02-09T10:03:02.034Z,14.17
2018-02-09T10:05:30.416Z,20.47
2018-02-09T10:07:58.861Z,16.10
2018-02-09T10:10:28.330Z,15.27
2018-02-09T10:12:57.332Z,13.20
2018-02-09T10:15:25.732Z,18.87
2018-02-09T10:17:54.885Z,15.27
2018-02-09T10:20:23.264Z,16.33
2018-02-09T10:22:51.959Z,15.40
2018-02-09T10:25:20.389Z,27.00
2018-02-09T10:27:49.831Z,11.65
2018-02-09T10:30:18.243Z,12.93
2018-02-09T10:32:47.406Z,7.97
2018-02-09T10:35:15.348Z,17.30
2018-02-09T10:37:49.237Z,12.00
2018-02-09T10:40:17.775Z,17.00
2018-02-09T10:42:46.189Z,15.83
2018-02-09T10:45:15.324Z,21.03
2018-02-09T10:47:43.730Z,20.23
2018-02-09T10:50:12.100Z,18.07
2018-02-09T10:52:40.485Z,14.50
2018-02-09T10:55:08.864Z,15.87
2018-02-09T10:57:37.246Z,28.73
2018-02-09T11:00:05.036Z,11.77
2018-02-09T11:02:34.188Z,21.73
2018-02-09T11:05:02.551Z,17.03
2018-02-09T11:07:30.930Z,15.33
2018-02-09T11:09:59.119Z,17.53
2018-02-09T11:12:27.336Z,13.30
2018-02-09T11:14:56.475Z,27.87
2018-02-09T11:17:24.852Z,19.13
2018-02-09T11:19:53.242Z,14.40
2018-02-09T11:22:22.373Z,17.33
2018-02-09T11:24:50.765Z,10.40
2018-02-09T11:27:19.896Z,10.73
2018-02-09T11:29:48.308Z,20.00
2018-02-09T11:32:16.848Z,17.80
2018-02-09T11:34:45.266Z,21.00
2018-02-09T11:37:13.647Z,21.80
2018-02-09T11:39:42.042Z,3.27
2018-02-09T11:42:10.405Z,15.30
2018-02-09T11:44:38.791Z,27.67
2018-02-09T11:47:07.298Z,22.00
2018-02-09T11:49:36.479Z,14.47
2018-02-09T11:52:05.628Z,26.40
2018-02-09T11:54:34.758Z,19.60
2018-02-09T11:57:03.124Z,16.47
2018-02-09T11:59:31.505Z,11.10
2018-02-09T12:01:59.896Z,13.07
2018-02-09T12:04:29.063Z,10.33
2018-02-09T12:06:57.596Z,14.87
2018-02-09T12:09:26.749Z,14.37
2018-02-09T12:11:56.892Z,13.90
2018-02-09T12:14:25.267Z,15.97
2018-02-09T12:16:53.642Z,9.23
2018-02-09T12:19:22.036Z,16.23
2018-02-09T12:21:50.414Z,10.00
2018-02-09T12:24:19.563Z,15.83
2018-02-09T12:26:47.955Z,9.90
2018-02-09T12:29:16.339Z,9.20
2018-02-09T12:31:44.714Z,15.10
2018-02-09T12:34:13.090Z,18.70
2018-02-09T12:36:41.482Z,10.50
2018-02-09T12:39:09.852Z,14.33
2018-02-09T12:41:38.139Z,12.43
2018-02-09T12:44:06.505Z,8.73
2018-02-09T12:46:34.863Z,6.87
2018-02-09T12:49:03.263Z,11.83
2018-02-09T12:51:31.649Z,12.20
2018-02-09T12:54:00.058Z,8.23
2018-02-09T12:56:29.212Z,13.77
2018-02-09T12:58:57.594Z,16.00
2018-02-09T13:01:25.987Z,10.27
2018-02-09T13:03:54.035Z,7.47
2018-02-09T13:06:22.412Z,7.93
2018-02-09T13:08:50.797Z,5.60
2018-02-09T13:11:19.182Z,10.43
2018-02-09T13:13:47.612Z,6.73
2018-02-09T13:16:16.158Z,12.27
2018-02-09T13:18:49.607Z,9.00
2018-02-09T13:21:18.012Z,11.83
2018-02-09T13:23:57.435Z,8.23
2018-02-09T13:26:25.812Z,8.50
2018-02-09T13:29:00.451Z,9.60
2018-02-09T13:31:28.815Z,6.10
2018-02-09T13:33:57.204Z,10.30
2018-02-09T13:36:36.975Z,7.97
2018-02-09T13:39:04.774Z,7.30
2018-02-09T13:41:33.151Z,9.70
2018-02-09T13:44:01.527Z,14.80
2018-02-09T13:46:29.963Z,13.67
2018-02-09T13:48:58.328Z,6.40
2018-02-09T13:51:26.710Z,8.73
2018-02-09T13:53:56.578Z,7.67
2018-02-09T13:56:24.971Z,8.63
2018-02-09T13:58:53.447Z,6.63
2018-02-09T14:01:23.368Z,7.40
2018-02-09T14:03:51.780Z,11.97
2018-02-09T14:06:20.161Z,15.20
2018-02-09T14:08:48.523Z,9.37
2018-02-09T14:11:16.996Z,10.90
2018-02-09T14:13:45.420Z,11.17
2018-02-09T14:16:14.587Z,12.30
2018-02-09T14:18:42.968Z,12.20
2018-02-09T14:21:11.344Z,11.00
2018-02-09T14:23:39.811Z,11.30
2018-02-09T14:26:08.282Z,10.13
2018-02-09T14:28:36.660Z,8.73
2018-02-09T14:31:06.111Z,12.03
2018-02-09T14:33:35.247Z,7.50
2018-02-09T14:36:03.644Z,11.90
2018-02-09T14:38:32.029Z,4.73
2018-02-09T14:41:01.446Z,5.70
2018-02-09T14:43:29.972Z,4.70
2018-02-09T14:45:59.003Z,12.80
2018-02-09T14:48:27.618Z,10.03
2018-02-09T14:50:56.044Z,3.50
2018-02-09T14:53:24.435Z,6.10
2018-02-09T14:55:52.824Z,9.17
2018-02-09T14:58:21.211Z,7.90
2018-02-09T15:00:49.597Z,8.87
2018-02-09T15:03:17.987Z,9.47
2018-02-09T15:05:46.400Z,6.03
2018-02-09T15:08:14.764Z,7.10
2018-02-09T15:10:43.903Z,3.17
2018-02-09T15:13:12.275Z,6.47
2018-02-09T15:15:40.652Z,9.37
2018-02-09T15:18:09.096Z,12.20
2018-02-09T15:20:38.241Z,14.63
2018-02-09T15:23:06.622Z,6.97
2018-02-09T15:25:35.234Z,18.33
2018-02-09T15:28:03.632Z,8.87
2018-02-09T15:30:32.769Z,9.67
2018-02-09T15:33:01.202Z,4.60
2018-02-09T15:35:30.520Z,3.40
2018-02-09T15:37:58.896Z,7.50
2018-02-09T15:40:27.259Z,7.97
2018-02-09T15:42:56.391Z,7.57
2018-02-09T15:45:25.611Z,12.83
2018-02-09T15:47:53.969Z,5.23
2018-02-09T15:50:22.364Z,5.60
2018-02-09T15:52:50.742Z,8.43
2018-02-09T15:55:19.100Z,9.10
2018-02-09T15:57:47.493Z,7.60
2018-02-09T16:00:15.855Z,7.77
2018-02-09T16:02:44.244Z,10.90
2018-02-09T16:05:12.656Z,3.50
2018-02-09T16:07:41.043Z,4.20
2018-02-09T16:10:10.201Z,8.50
2018-02-09T16:12:38.596Z,6.97
2018-02-09T16:15:06.986Z,9.17
2018-02-09T16:17:35.368Z,10.50
2018-02-09T16:20:03.740Z,10.47
2018-02-09T16:22:32.144Z,23.33
2018-02-09T16:25:01.281Z,9.47
2018-02-09T16:27:31.617Z,12.87
2018-02-09T16:30:00.006Z,15.23
2018-02-09T16:32:28.421Z,15.23
2018-02-09T16:34:57.571Z,7.10
2018-02-09T16:37:26.008Z,6.70
2018-02-09T16:39:54.450Z,6.17
2018-02-09T16:42:22.984Z,4.53
2018-02-09T16:44:51.468Z,6.73
2018-02-09T16:47:19.980Z,4.40
2018-02-09T16:49:49.172Z,7.10
2018-02-09T16:52:17.571Z,7.80
2018-02-09T16:54:45.967Z,11.17
2018-02-09T16:57:15.219Z,7.87
2018-02-09T16:59:43.618Z,8.93
2018-02-09T17:02:12.069Z,8.10
2018-02-09T17:04:40.451Z,5.53
2018-02-09T17:07:08.843Z,8.60
2018-02-09T17:09:37.279Z,4.33
2018-02-09T17:12:05.641Z,6.10
2018-02-09T17:14:34.824Z,5.80
2018-02-09T17:17:03.196Z,6.70
2018-02-09T17:19:31.573Z,8.80
2018-02-09T17:21:59.933Z,7.17
2018-02-09T17:24:28.334Z,4.63
2018-02-09T17:26:57.174Z,7.00
2018-02-09T17:29:25.557Z,9.53
2018-02-09T17:31:53.939Z,3.27
2018-02-09T17:34:22.319Z,6.20
2018-02-09T17:36:50.704Z,9.77
2018-02-09T17:39:19.071Z,7.00
2018-02-09T17:41:47.478Z,8.17
2018-02-09T17:44:16.652Z,7.03
2018-02-09T17:46:45.044Z,8.67
2018-02-09T17:49:13.408Z,6.03
2018-02-09T17:51:41.807Z,7.07
2018-02-09T17:54:10.180Z,5.90
2018-02-09T17:56:38.559Z,4.17
2018-02-09T17:59:06.919Z,7.47
2018-02-09T18:01:35.303Z,2.80
2018-02-09T18:04:03.704Z,8.27
2018-02-09T18:06:32.124Z,5.73
2018-02-09T18:09:01.257Z,4.47
2018-02-09T18:11:29.712Z,4.60
2018-02-09T18:13:58.209Z,7.90
2018-02-09T18:16:26.407Z,4.20
2018-02-09T18:18:54.793Z,4.60
2018-02-09T18:21:23.202Z,4.80
2018-02-09T18:23:51.603Z,7.33
2018-02-09T18:26:20.024Z,7.50
2018-02-09T18:28:48.400Z,6.80
2018-02-09T18:31:16.813Z,9.23
2018-02-09T18:33:45.472Z,5.35
2018-02-09T18:36:13.852Z,5.67
2018-02-09T18:38:42.544Z,6.60
2018-02-09T18:41:10.930Z,7.60
2018-02-09T18:43:40.094Z,4.90
2018-02-09T18:46:08.461Z,5.93
2018-02-09T18:48:36.860Z,7.87
2018-02-09T18:51:05.231Z,6.87
2018-02-09T18:53:33.691Z,4.40
2018-02-09T18:56:03.100Z,8.33
2018-02-09T18:58:32.494Z,5.37
2018-02-09T19:01:00.881Z,1.80
2018-02-09T19:03:30.289Z,7.20
2018-02-09T19:05:58.689Z,10.20
2018-02-09T19:08:27.062Z,6.10
2018-02-09T19:10:55.432Z,3.60
2018-02-09T19:13:24.080Z,5.45
2018-02-09T19:15:53.305Z,6.27
2018-02-09T19:18:21.704Z,7.10
2018-02-09T19:20:50.086Z,3.57
2018-02-09T19:23:19.232Z,5.13
2018-02-09T19:25:47.603Z,7.30
2018-02-09T19:28:15.779Z,6.90
2018-02-09T19:30:45.005Z,4.43
2018-02-09T19:33:13.385Z,6.10
2018-02-09T19:35:41.779Z,3.90
2018-02-09T19:38:10.331Z,7.20
2018-02-09T19:40:38.985Z,6.90
2018-02-09T19:43:08.114Z,2.60
2018-02-09T19:45:37.524Z,6.47
2018-02-09T19:48:05.935Z,4.33
2018-02-09T19:50:34.301Z,4.83
2018-02-09T19:53:02.688Z,8.53
2018-02-09T19:55:31.317Z,2.78
2018-02-09T19:57:59.691Z,3.63
2018-02-09T20:00:28.055Z,5.53
2018-02-09T20:02:57.258Z,6.33
2018-02-09T20:05:25.900Z,4.32
2018-02-09T20:07:57.303Z,6.23
2018-02-09T20:10:25.949Z,4.20
2018-02-09T20:12:54.353Z,7.73
2018-02-09T20:15:22.984Z,5.18
2018-02-09T20:17:52.396Z,3.45
2018-02-09T20:20:21.052Z,4.90
2018-02-09T20:22:49.475Z,6.87
2018-02-09T20:25:17.868Z,6.10
2018-02-09T20:27:47.029Z,6.30
2018-02-09T20:30:15.427Z,5.90
2018-02-09T20:32:44.104Z,6.03
2018-02-09T20:35:12.491Z,2.83
2018-02-09T20:37:40.873Z,3.50
2018-02-09T20:40:09.642Z,4.57
2018-02-09T20:42:38.026Z,6.30
2018-02-09T20:45:06.693Z,5.40
2018-02-09T20:47:36.201Z,5.03
2018-02-09T20:50:05.681Z,2.33
2018-02-09T20:52:35.104Z,8.70
2018-02-09T20:55:03.439Z,4.37
2018-02-09T20:57:32.091Z,1.45
2018-02-09T21:00:00.742Z,7.18
2018-02-09T21:02:30.139Z,5.30
2018-02-09T21:04:58.626Z,9.60
2018-02-09T21:07:27.039Z,5.30
2018-02-09T21:09:55.452Z,7.50
2018-02-09T21:12:23.811Z,6.97
2018-02-09T21:14:52.978Z,8.90
2018-02-09T21:17:21.369Z,9.00
2018-02-09T21:19:49.779Z,8.60
2018-02-09T21:22:18.147Z,3.17
2018-02-09T21:24:46.589Z,11.17
2018-02-09T21:27:15.004Z,5.90
2018-02-09T21:29:44.208Z,6.10
2018-02-09T21:32:13.371Z,7.73
2018-02-09T21:34:41.746Z,3.60
2018-02-09T21:37:09.804Z,6.07
2018-02-09T21:39:38.164Z,9.50
2018-02-09T21:42:06.527Z,2.93
2018-02-09T21:44:34.908Z,6.13
2018-02-09T21:47:03.561Z,5.45
2018-02-09T21:49:32.691Z,3.87
2018-02-09T21:52:01.337Z,5.72
2018-02-09T21:54:29.994Z,6.30
2018-02-09T21:56:58.700Z,3.60
2018-02-09T21:59:28.238Z,7.78
2018-02-09T22:01:58.049Z,4.23
2018-02-09T22:04:26.474Z,3.50
2018-02-09T22:06:54.863Z,8.23
2018-02-09T22:09:23.237Z,5.13
2018-02-09T22:11:51.860Z,5.05
2018-02-09T22:14:20.516Z,6.32
2018-02-09T22:16:49.167Z,7.12
2018-02-09T22:19:17.562Z,6.77
2018-02-09T22:21:45.956Z,9.50
2018-02-09T22:24:14.612Z,5.80
2018-02-09T22:26:43.000Z,7.80
2018-02-09T22:29:11.459Z,6.40
2018-02-09T22:31:39.824Z,7.63
2018-02-09T22:34:08.204Z,5.60
2018-02-09T22:36:36.827Z,5.12
2018-02-09T22:39:04.550Z,4.47
2018-02-09T22:41:32.926Z,6.70
2018-02-09T22:44:01.302Z,6.97
2018-02-09T22:46:29.696Z,3.73
2018-02-09T22:48:59.135Z,6.32
2018-02-09T22:51:27.781Z,7.25
2018-02-09T22:53:56.491Z,4.47
2018-02-09T22:56:24.884Z,2.90
2018-02-09T22:58:53.258Z,9.10
2018-02-09T23:01:21.923Z,3.55
2018-02-09T23:03:51.328Z,6.68
2018-02-09T23:06:19.801Z,3.30
2018-02-09T23:08:49.232Z,6.05
2018-02-09T23:11:17.603Z,4.40
2018-02-09T23:13:45.957Z,4.43
2018-02-09T23:16:13.676Z,5.90
2018-02-09T23:18:42.836Z,4.97
2018-02-09T23:21:11.226Z,5.83
2018-02-09T23:23:39.795Z,7.97
2018-02-09T23:26:08.175Z,6.37
2018-02-09T23:28:36.551Z,6.00
2018-02-09T23:31:04.931Z,3.43
2018-02-09T23:33:33.323Z,8.13
2018-02-09T23:36:01.830Z,7.10
2018-02-09T23:38:30.477Z,6.72
2018-02-09T23:40:58.853Z,10.37
2018-02-09T23:43:27.233Z,5.30
2018-02-09T23:45:55.613Z,9.60
2018-02-09T23:48:24.001Z,8.20
2018-02-09T23:50:52.371Z,9.03
2018-02-09T23:53:20.764Z,4.33
2018-02-09T23:55:49.135Z,7.03
2018-02-09T23:58:17.537Z,6.37
